Terminal Aerodrome Forecast
Issued by NWS Grand Forks, ND

Home | Current Version | Previous Version | Graphics & Text | Print | Product List | Glossary On
Versions: 1 2 3 4 5 6 7 8 9 10 11 12 13 14 15
933
FTUS43 KFGF 262336
TAFGFK
TAF
KGFK 262336Z 2700/2724 33009KT P6SM SCT050
     FM270200 VRB04KT P6SM SKC
     FM271500 35006KT P6SM FEW050=

USA.gov is the U.S. government's official web portal to all federal, state and local government web resources and services.